Time;durP1;ratioP1;P1;durP2;ratioP2;P2;SDS_P1;SDS_P2;PMS_P1;PMS_P2;Temp;Humidity;BMP_temperature;BMP_pressure;BME280_temperature;BME280_humidity;BME280_pressure;Samples;Min_cycle;Max_cycle;Signal;HPM_P1;HPM_P2
2023/10/18 00:01:14;;;;;;;;;;;;;;;10.49;100.00;99705.78;5031575;28;19913;-74
2023/10/18 00:03:41;;;;;;;;;;;;;;;10.46;100.00;99703.63;5032669;28;20008;-74
2023/10/18 00:06:15;;;;;;;;;;;;;;;10.60;100.00;99708.25;5031353;28;19998;-74
2023/10/18 00:08:45;;;;;;;;;;;;;;;10.64;99.65;99695.25;5032554;28;19948;-74
2023/10/18 00:11:11;;;;;;;;;;;;;;;10.91;99.05;99690.44;5032585;28;19917;-74
2023/10/18 00:13:36;;;;;;;;;;;;;;;10.99;98.13;99689.63;5031779;28;19944;-74
2023/10/18 00:16:06;;;;;;;;;;;;;;;11.22;97.61;99694.97;5027346;28;19917;-74
2023/10/18 00:18:32;;;;;;;;;;;;;;;11.27;96.81;99682.78;5012312;28;19918;-74
2023/10/18 00:21:01;;;;;;;;;;;;;;;11.37;96.39;99682.41;5012740;28;19920;-74
2023/10/18 00:23:27;;;;;;;;;;;;;;;11.50;95.35;99686.16;5020897;28;19917;-74
2023/10/18 00:25:53;;;;;;;;;;;;;;;11.44;94.32;99674.31;5031240;28;19913;-74
2023/10/18 00:28:20;;;;;;;;;;;;;;;11.56;94.27;99670.00;5032304;28;19917;-74
2023/10/18 00:30:45;;;;;;;;;;;;;;;11.63;93.28;99670.25;5032412;28;19920;-74
2023/10/18 00:33:10;;;;;;;;;;;;;;;11.63;93.43;99668.31;5031242;28;19925;-74
2023/10/18 00:35:36;;;;;;;;;;;;;;;11.66;93.28;99667.63;5032316;28;19920;-74
2023/10/18 00:38:03;;;;;;;;;;;;;;;11.64;93.35;99675.53;5032253;28;20352;-74
2023/10/18 00:42:53;;;;;;;;;;;;;;;11.64;93.66;99672.75;5032428;28;20358;-74
2023/10/18 00:45:21;;;;;;;;;;;;;;;11.65;93.82;99677.19;5032185;28;19913;-74
2023/10/18 00:47:46;;;;;;;;;;;;;;;11.59;94.14;99672.94;5029415;28;19928;-74
2023/10/18 00:50:14;;;;;;;;;;;;;;;11.54;94.52;99675.91;5032027;28;19913;-74
2023/10/18 00:52:39;;;;;;;;;;;;;;;11.55;95.35;99677.56;5031553;28;19913;-74
2023/10/18 00:55:05;;;;;;;;;;;;;;;11.61;95.09;99675.38;5030598;28;20323;-74
2023/10/18 00:57:36;;;;;;;;;;;;;;;11.64;94.31;99675.53;5030602;28;19913;-74
2023/10/18 01:00:12;;;;;;;;;;;;;;;11.69;94.14;99673.69;5031753;28;20008;-74
2023/10/18 01:02:41;;;;;;;;;;;;;;;11.70;94.32;99666.94;5013562;28;19918;-74
2023/10/18 01:05:14;;;;;;;;;;;;;;;11.74;93.73;99668.72;5027153;28;20289;-74
2023/10/18 01:07:41;;;;;;;;;;;;;;;11.81;93.08;99668.19;5027272;28;19917;-74
2023/10/18 01:10:07;;;;;;;;;;;;;;;11.74;94.16;99667.91;5028956;28;19917;-74
2023/10/18 01:12:34;;;;;;;;;;;;;;;11.67;94.30;99660.03;5028862;28;20414;-74
2023/10/18 01:15:00;;;;;;;;;;;;;;;11.70;95.11;99661.31;5010625;28;20453;-74
2023/10/18 01:17:25;;;;;;;;;;;;;;;11.66;94.70;99662.00;5011947;28;20048;-74
2023/10/18 01:19:53;;;;;;;;;;;;;;;11.75;95.13;99663.97;5018666;28;20391;-74
2023/10/18 01:22:19;;;;;;;;;;;;;;;11.81;94.40;99662.59;5030465;28;19996;-74
2023/10/18 01:24:45;;;;;;;;;;;;;;;11.75;94.14;99663.97;5031631;28;19917;-74
2023/10/18 01:27:12;;;;;;;;;;;;;;;11.76;94.19;99663.59;5031516;28;20004;-74
2023/10/18 01:29:38;;;;;;;;;;;;;;;11.78;94.65;99660.47;5030557;28;19919;-74
2023/10/18 01:32:04;;;;;;;;;;;;;;;11.83;94.09;99660.28;5031674;28;19952;-74
2023/10/18 01:34:31;;;;;;;;;;;;;;;11.82;94.03;99667.03;5031580;28;19949;-74
2023/10/18 01:36:57;;;;;;;;;;;;;;;11.87;93.52;99658.44;5018839;28;19917;-74
2023/10/18 01:39:24;;;;;;;;;;;;;;;11.80;94.00;99660.94;5035473;28;20272;-74
2023/10/18 01:41:56;;;;;;;;;;;;;;;11.70;95.10;99664.13;5035550;28;19951;-74
2023/10/18 01:44:28;;;;;;;;;;;;;;;11.76;94.65;99660.78;5035484;28;19913;-74
2023/10/18 01:46:55;;;;;;;;;;;;;;;11.74;94.12;99656.72;5035295;28;20015;-74
2023/10/18 01:49:21;;;;;;;;;;;;;;;11.77;94.04;99653.22;5033735;28;19925;-74
2023/10/18 01:51:48;;;;;;;;;;;;;;;11.79;93.56;99664.91;5033140;28;19983;-74
2023/10/18 01:54:15;;;;;;;;;;;;;;;11.84;92.98;99663.91;5033801;28;20364;-74
2023/10/18 01:56:46;;;;;;;;;;;;;;;11.80;92.98;99656.19;5030365;28;19921;-74
2023/10/18 01:59:14;;;;;;;;;;;;;;;11.77;92.88;99650.41;5013996;28;20311;-74
2023/10/18 02:01:39;;;;;;;;;;;;;;;11.76;93.42;99654.38;5015476;28;19920;-74
2023/10/18 02:04:11;;;;;;;;;;;;;;;11.69;93.50;99657.72;5014121;28;19958;-75
2023/10/18 02:06:36;;;;;;;;;;;;;;;11.77;93.27;99658.81;5014511;28;20314;-75
2023/10/18 02:09:04;;;;;;;;;;;;;;;11.77;93.69;99661.63;5015073;28;19913;-75
2023/10/18 02:11:35;;;;;;;;;;;;;;;11.78;94.57;99666.06;5015267;28;20434;-75
2023/10/18 02:14:01;;;;;;;;;;;;;;;11.69;95.11;99673.69;5029555;28;19929;-75
2023/10/18 02:16:26;;;;;;;;;;;;;;;11.44;96.50;99673.50;5033453;28;19917;-75
2023/10/18 02:18:51;;;;;;;;;;;;;;;10.81;99.39;99675.66;5033502;28;19960;-76
2023/10/18 02:21:21;;;;;;;;;;;;;;;10.66;100.00;99671.38;5032515;28;19925;-75
2023/10/18 02:23:50;;;;;;;;;;;;;;;10.38;100.00;99673.69;5034651;28;19967;-75
2023/10/18 02:26:31;;;;;;;;;;;;;;;10.39;100.00;99675.34;5033463;28;19913;-75
2023/10/18 02:28:59;;;;;;;;;;;;;;;10.69;100.00;99667.09;5034454;28;20405;-75
2023/10/18 02:31:24;;;;;;;;;;;;;;;10.38;100.00;99671.69;5034700;28;19917;-75
2023/10/18 02:33:53;;;;;;;;;;;;;;;10.32;100.00;99673.03;5034423;28;20015;-75
2023/10/18 02:36:21;;;;;;;;;;;;;;;10.42;100.00;99669.09;5033339;28;19927;-75
2023/10/18 02:38:50;;;;;;;;;;;;;;;10.33;100.00;99663.50;5033053;28;19913;-75
2023/10/18 02:41:18;;;;;;;;;;;;;;;10.21;100.00;99661.34;5034443;28;19913;-75
2023/10/18 02:43:45;;;;;;;;;;;;;;;10.11;100.00;99667.25;5034398;28;19914;-75
2023/10/18 02:46:16;;;;;;;;;;;;;;;9.90;100.00;99667.88;5031923;28;19913;-75
2023/10/18 02:48:41;;;;;;;;;;;;;;;9.97;100.00;99671.00;5034045;28;19921;-76
2023/10/18 02:51:07;;;;;;;;;;;;;;;9.87;100.00;99670.50;5033240;28;19917;-75
2023/10/18 02:53:34;;;;;;;;;;;;;;;9.76;100.00;99669.97;5032578;28;20011;-75
2023/10/18 02:55:59;;;;;;;;;;;;;;;9.93;100.00;99666.38;5032472;28;19924;-76
2023/10/18 02:58:28;;;;;;;;;;;;;;;9.74;100.00;99675.06;5034052;28;20303;-75
2023/10/18 03:00:54;;;;;;;;;;;;;;;9.65;100.00;99673.09;5033978;28;19913;-75
2023/10/18 03:03:21;;;;;;;;;;;;;;;9.74;100.00;99670.31;5032813;28;19917;-75
2023/10/18 03:05:47;;;;;;;;;;;;;;;9.68;100.00;99669.63;5031537;28;19913;-75
2023/10/18 03:08:12;;;;;;;;;;;;;;;9.67;100.00;99675.53;5033927;28;19917;-76
2023/10/18 03:10:45;;;;;;;;;;;;;;;9.77;100.00;99669.66;5032587;28;19967;-75
2023/10/18 03:13:13;;;;;;;;;;;;;;;9.67;100.00;99670.78;5033786;28;20024;-75
2023/10/18 03:16:03;;;;;;;;;;;;;;;9.72;100.00;99661.44;5031945;28;20364;-75
2023/10/18 03:18:28;;;;;;;;;;;;;;;9.70;100.00;99652.53;5033748;28;20380;-75
2023/10/18 03:20:56;;;;;;;;;;;;;;;9.78;100.00;99660.13;5024867;28;19924;-75
2023/10/18 03:23:22;;;;;;;;;;;;;;;9.49;100.00;99655.09;5013944;28;19925;-75
2023/10/18 03:25:58;;;;;;;;;;;;;;;9.59;100.00;99659.56;5029249;28;20453;-76
2023/10/18 03:28:24;;;;;;;;;;;;;;;9.63;100.00;99650.22;5012575;28;19917;-76
2023/10/18 03:30:50;;;;;;;;;;;;;;;9.75;100.00;99659.94;5013708;28;20037;-75
2023/10/18 03:33:15;;;;;;;;;;;;;;;9.81;100.00;99659.47;5019404;28;19917;-75
2023/10/18 03:35:41;;;;;;;;;;;;;;;9.75;100.00;99655.19;5021754;28;19917;-75
2023/10/18 03:38:17;;;;;;;;;;;;;;;9.77;100.00;99666.03;5024997;28;19936;-75
2023/10/18 03:40:48;;;;;;;;;;;;;;;9.83;100.00;99659.16;5031929;28;19974;-75
2023/10/18 03:43:15;;;;;;;;;;;;;;;9.89;100.00;99649.44;5033507;28;19913;-75
2023/10/18 03:48:46;;;;;;;;;;;;;;;9.92;100.00;99640.44;4991555;28;19968;-76
2023/10/18 03:51:18;;;;;;;;;;;;;;;10.14;100.00;99640.63;4960812;28;20424;-75
2023/10/18 03:53:43;;;;;;;;;;;;;;;10.21;100.00;99643.75;5005517;28;19944;-75
2023/10/18 03:56:13;;;;;;;;;;;;;;;10.17;100.00;99651.97;5032725;28;19913;-75
2023/10/18 03:58:39;;;;;;;;;;;;;;;10.30;100.00;99657.72;5032983;28;19959;-75
2023/10/18 04:01:05;;;;;;;;;;;;;;;10.28;100.00;99638.47;5031492;28;20384;-75
2023/10/18 04:03:30;;;;;;;;;;;;;;;10.28;100.00;99640.47;5028144;28;19918;-75
2023/10/18 04:06:07;;;;;;;;;;;;;;;10.01;100.00;99643.22;5027733;28;19927;-75
2023/10/18 04:08:34;;;;;;;;;;;;;;;10.21;100.00;99643.75;5032938;28;19913;-76
2023/10/18 04:11:00;;;;;;;;;;;;;;;10.16;100.00;99639.16;5032626;28;19970;-75
2023/10/18 04:13:27;;;;;;;;;;;;;;;10.11;100.00;99633.69;5032528;28;20354;-75
2023/10/18 04:16:11;;;;;;;;;;;;;;;10.37;100.00;99630.91;5032293;28;19913;-77
2023/10/18 04:18:37;;;;;;;;;;;;;;;10.24;100.00;99635.50;5031493;28;20004;-74
2023/10/18 04:21:05;;;;;;;;;;;;;;;10.33;100.00;99635.53;5017024;28;19960;-76
2023/10/18 04:23:30;;;;;;;;;;;;;;;10.31;100.00;99637.00;5011561;28;19967;-75
2023/10/18 04:26:00;;;;;;;;;;;;;;;10.33;100.00;99635.53;5027934;28;20448;-81
2023/10/18 04:28:26;;;;;;;;;;;;;;;10.53;100.00;99639.66;5018445;28;19917;-76
2023/10/18 04:31:04;;;;;;;;;;;;;;;10.62;100.00;99636.03;5030840;28;19919;-78
2023/10/18 04:33:36;;;;;;;;;;;;;;;10.60;100.00;99630.75;5030800;28;19921;-76
2023/10/18 04:36:12;;;;;;;;;;;;;;;10.82;100.00;99642.91;5019065;28;20016;-76
2023/10/18 04:38:47;;;;;;;;;;;;;;;10.85;100.00;99647.00;5024394;28;20319;-75
2023/10/18 04:41:28;;;;;;;;;;;;;;;10.38;100.00;99645.72;5031963;28;19917;-74
2023/10/18 04:44:08;;;;;;;;;;;;;;;10.43;100.00;99639.16;5030999;28;19962;-75
2023/10/18 04:46:35;;;;;;;;;;;;;;;10.34;100.00;99641.94;5032004;28;20404;-73
2023/10/18 04:49:15;;;;;;;;;;;;;;;10.46;100.00;99639.31;5030291;28;19921;-76
2023/10/18 04:56:39;;;;;;;;;;;;;;;10.47;100.00;99663.34;5012015;28;19917;-76
2023/10/18 05:01:47;;;;;;;;;;;;;;;10.13;100.00;99662.13;5012396;28;19913;-76
2023/10/18 05:04:36;;;;;;;;;;;;;;;10.44;100.00;99651.97;5012163;28;19925;-76
2023/10/18 05:07:04;;;;;;;;;;;;;;;10.66;100.00;99648.19;5011383;28;19921;-76
2023/10/18 05:09:41;;;;;;;;;;;;;;;10.82;100.00;99652.09;5011469;28;20023;-76
2023/10/18 05:12:16;;;;;;;;;;;;;;;10.95;100.00;99649.44;5014615;28;19939;-76
2023/10/18 05:14:50;;;;;;;;;;;;;;;11.08;100.00;99656.00;5013193;28;19925;-76
2023/10/18 05:17:21;;;;;;;;;;;;;;;11.12;100.00;99654.16;5029955;28;19913;-76
2023/10/18 05:19:48;;;;;;;;;;;;;;;11.12;100.00;99656.97;5028115;28;19921;-76
2023/10/18 05:22:19;;;;;;;;;;;;;;;11.09;100.00;99660.44;5018120;28;19917;-76
2023/10/18 05:24:47;;;;;;;;;;;;;;;11.19;100.00;99654.50;5028040;28;19921;-76
2023/10/18 05:27:25;;;;;;;;;;;;;;;11.29;100.00;99664.50;5029637;28;19921;-76
2023/10/18 05:29:54;;;;;;;;;;;;;;;11.30;100.00;99666.13;5025317;28;19924;-76
2023/10/18 05:32:38;;;;;;;;;;;;;;;11.36;100.00;99670.41;5031427;28;19913;-76
2023/10/18 05:35:19;;;;;;;;;;;;;;;11.39;100.00;99674.50;5025456;28;20412;-76
2023/10/18 05:38:19;;;;;;;;;;;;;;;11.44;100.00;99677.13;5010404;28;19945;-76
2023/10/18 05:40:50;;;;;;;;;;;;;;;11.45;100.00;99683.53;5028630;28;19932;-76
2023/10/18 05:43:29;;;;;;;;;;;;;;;11.43;100.00;99694.25;5025188;28;20445;-76
2023/10/18 05:46:00;;;;;;;;;;;;;;;11.46;100.00;99693.56;5029900;28;19920;-76
2023/10/18 05:48:25;;;;;;;;;;;;;;;11.50;100.00;99691.75;5030254;28;22036;-75
2023/10/18 05:51:02;;;;;;;;;;;;;;;11.54;100.00;99691.91;5028740;28;19971;-76
2023/10/18 05:53:28;;;;;;;;;;;;;;;11.50;100.00;99694.56;5022703;28;19976;-76
2023/10/18 05:55:54;;;;;;;;;;;;;;;11.55;100.00;99688.75;5016803;28;19924;-76
2023/10/18 05:58:25;;;;;;;;;;;;;;;11.59;100.00;99694.53;5028942;28;19917;-76
2023/10/18 06:00:57;;;;;;;;;;;;;;;11.56;100.00;99687.59;5031333;28;20010;-76
2023/10/18 06:03:26;;;;;;;;;;;;;;;11.48;100.00;99689.28;5029927;28;20011;-76
2023/10/18 06:05:51;;;;;;;;;;;;;;;11.60;100.00;99691.41;5024831;28;19917;-76
2023/10/18 06:08:18;;;;;;;;;;;;;;;11.71;100.00;99699.44;5014475;28;19944;-74
2023/10/18 06:10:44;;;;;;;;;;;;;;;11.68;100.00;99698.13;5012961;28;19928;-74
2023/10/18 06:13:20;;;;;;;;;;;;;;;11.74;100.00;99702.34;5022882;28;19925;-74
2023/10/18 06:15:49;;;;;;;;;;;;;;;11.76;100.00;99710.44;5020948;28;19928;-74
2023/10/18 06:18:18;;;;;;;;;;;;;;;11.64;100.00;99708.31;5028181;28;19925;-74
2023/10/18 06:20:45;;;;;;;;;;;;;;;11.18;100.00;99710.81;5016783;28;19964;-74
2023/10/18 06:23:55;;;;;;;;;;;;;;;11.38;100.00;99712.88;5017356;28;20513;-76
2023/10/18 06:25:59;;;;;;;;;;;;;;;11.45;100.00;99711.53;5016885;28;20011;-70
2023/10/18 06:28:25;;;;;;;;;;;;;;;11.55;100.00;99713.97;5036184;28;20411;-73
2023/10/18 06:30:53;;;;;;;;;;;;;;;11.29;100.00;99706.50;5023307;28;19922;-72
2023/10/18 06:33:20;;;;;;;;;;;;;;;11.56;100.00;99703.59;5014449;28;20020;-72
2023/10/18 06:35:52;;;;;;;;;;;;;;;11.68;100.00;99716.88;5025106;28;19932;-73
2023/10/18 06:38:24;;;;;;;;;;;;;;;11.80;100.00;99717.00;5025376;28;19924;-72
2023/10/18 06:40:53;;;;;;;;;;;;;;;11.83;100.00;99716.34;5021907;28;19925;-72
2023/10/18 06:43:20;;;;;;;;;;;;;;;11.85;100.00;99716.81;5029348;28;19921;-72
2023/10/18 06:45:46;;;;;;;;;;;;;;;11.51;100.00;99724.22;5026176;28;19928;-72
2023/10/18 06:48:14;;;;;;;;;;;;;;;11.69;100.00;99715.72;5026796;28;20401;-74
2023/10/18 06:50:40;;;;;;;;;;;;;;;11.84;100.00;99715.19;5019826;28;20044;-72
2023/10/18 06:53:11;;;;;;;;;;;;;;;11.92;100.00;99725.50;5021639;28;19956;-76
2023/10/18 06:58:15;;;;;;;;;;;;;;;11.95;100.00;99718.41;5014409;28;20379;-75
2023/10/18 07:00:43;;;;;;;;;;;;;;;11.77;100.00;99715.72;5013062;28;19954;-75
2023/10/18 07:03:18;;;;;;;;;;;;;;;11.64;100.00;99714.75;5021339;28;19923;-74
2023/10/18 07:05:51;;;;;;;;;;;;;;;11.88;100.00;99729.31;5031087;28;19921;-75
2023/10/18 07:08:25;;;;;;;;;;;;;;;12.00;100.00;99726.63;5023419;28;19921;-73
2023/10/18 07:10:54;;;;;;;;;;;;;;;11.99;100.00;99722.16;5026352;28;19921;-76
2023/10/18 07:13:24;;;;;;;;;;;;;;;12.03;100.00;99725.16;5036320;28;19925;-75
2023/10/18 07:15:51;;;;;;;;;;;;;;;12.08;100.00;99717.38;5025390;28;19960;-75
2023/10/18 07:18:16;;;;;;;;;;;;;;;12.04;100.00;99721.19;5016519;28;19946;-74
2023/10/18 07:20:41;;;;;;;;;;;;;;;12.15;100.00;99722.44;5011552;28;19950;-75
2023/10/18 07:23:10;;;;;;;;;;;;;;;12.13;99.44;99721.16;5030612;28;19979;-73
2023/10/18 07:25:40;;;;;;;;;;;;;;;12.14;99.16;99717.19;5016760;28;19925;-74
2023/10/18 07:28:06;;;;;;;;;;;;;;;12.17;98.47;99708.09;5011277;28;19921;-73
2023/10/18 07:30:42;;;;;;;;;;;;;;;12.15;97.36;99714.03;5011708;28;20000;-76
2023/10/18 07:33:09;;;;;;;;;;;;;;;12.24;97.10;99713.16;5019985;28;19928;-75
2023/10/18 07:35:35;;;;;;;;;;;;;;;12.28;96.98;99714.09;5016266;28;19944;-76
2023/10/18 07:38:01;;;;;;;;;;;;;;;12.18;96.88;99718.94;5026221;28;20027;-73
2023/10/18 07:40:33;;;;;;;;;;;;;;;12.23;96.75;99719.94;5010903;28;19964;-76
2023/10/18 07:42:58;;;;;;;;;;;;;;;12.30;96.72;99720.19;5019803;28;20014;-74
2023/10/18 07:45:24;;;;;;;;;;;;;;;12.10;95.22;99738.63;5030425;28;20431;-75
2023/10/18 07:47:55;;;;;;;;;;;;;;;12.13;94.50;99724.75;5020788;28;19932;-75
2023/10/18 07:53:05;;;;;;;;;;;;;;;12.34;95.90;99730.38;5009510;28;20203;-75
2023/10/18 07:55:36;;;;;;;;;;;;;;;12.46;94.99;99726.03;5014765;28;19921;-75
2023/10/18 07:58:04;;;;;;;;;;;;;;;12.42;93.78;99720.25;5020211;28;20443;-75
2023/10/18 08:00:32;;;;;;;;;;;;;;;12.45;93.22;99721.56;5026978;28;19921;-75
2023/10/18 08:02:57;;;;;;;;;;;;;;;11.90;93.58;99719.41;5018466;28;20008;-75
2023/10/18 08:05:30;;;;;;;;;;;;;;;12.27;93.64;99720.88;5019261;28;20019;-73
2023/10/18 08:07:57;;;;;;;;;;;;;;;12.54;92.96;99713.09;5023161;28;19921;-74
2023/10/18 08:10:23;;;;;;;;;;;;;;;12.74;92.01;99719.88;5019054;28;20319;-74
2023/10/18 08:13:07;;;;;;;;;;;;;;;12.75;91.44;99719.50;5020567;28;19939;-74
2023/10/18 08:15:36;;;;;;;;;;;;;;;12.93;91.84;99716.56;5019146;28;19921;-75
2023/10/18 08:18:42;;;;;;;;;;;;;;;13.19;90.97;99707.03;5025110;28;20493;-74
2023/10/18 08:23:57;;;;;;;;;;;;;;;12.71;88.94;99724.19;5028380;28;20327;-75
2023/10/18 08:26:04;;;;;;;;;;;;;;;13.03;89.71;99721.75;5017550;28;19928;-74
2023/10/18 08:28:38;;;;;;;;;;;;;;;13.03;89.12;99723.72;5025368;28;19921;-73
2023/10/18 08:33:57;;;;;;;;;;;;;;;13.32;84.92;99717.13;5023566;28;19979;-74
2023/10/18 08:36:31;;;;;;;;;;;;;;;13.48;83.93;99724.91;5019658;28;20467;-74
2023/10/18 08:38:57;;;;;;;;;;;;;;;13.62;83.92;99724.59;5018821;28;19922;-71
2023/10/18 08:41:25;;;;;;;;;;;;;;;13.75;85.39;99729.06;5027924;28;19971;-75
2023/10/18 08:44:05;;;;;;;;;;;;;;;13.58;84.49;99729.28;5028520;28;20347;-75
2023/10/18 08:46:36;;;;;;;;;;;;;;;13.87;85.63;99725.41;5021697;28;19964;-74
2023/10/18 08:49:03;;;;;;;;;;;;;;;14.10;83.95;99726.94;5025131;28;19925;-74
2023/10/18 08:51:28;;;;;;;;;;;;;;;13.88;85.99;99729.06;5020411;28;19921;-74
2023/10/18 08:53:54;;;;;;;;;;;;;;;13.94;86.45;99738.09;5017058;28;20600;-74
2023/10/18 08:56:25;;;;;;;;;;;;;;;13.98;83.52;99737.03;5020705;28;20323;-75
2023/10/18 08:58:52;;;;;;;;;;;;;;;13.67;84.07;99737.59;5021911;28;19925;-72
2023/10/18 09:01:21;;;;;;;;;;;;;;;13.13;86.20;99736.50;5015266;28;19921;-73
2023/10/18 09:03:47;;;;;;;;;;;;;;;13.59;87.71;99737.34;5022918;28;19921;-73
2023/10/18 09:06:22;;;;;;;;;;;;;;;13.64;84.78;99736.31;5023041;28;19925;-74
2023/10/18 09:09:00;;;;;;;;;;;;;;;13.87;84.97;99742.28;5011945;28;19967;-74
2023/10/18 09:11:28;;;;;;;;;;;;;;;13.72;85.13;99745.78;5015190;28;20368;-75
2023/10/18 09:14:08;;;;;;;;;;;;;;;13.46;85.12;99744.13;5015836;28;19929;-74
2023/10/18 09:16:40;;;;;;;;;;;;;;;13.44;87.03;99746.47;5016026;28;19921;-73
2023/10/18 09:19:06;;;;;;;;;;;;;;;13.57;86.94;99748.13;5017003;28;20007;-76
2023/10/18 09:21:36;;;;;;;;;;;;;;;13.45;85.64;99750.91;5028582;28;19955;-75
2023/10/18 09:24:03;;;;;;;;;;;;;;;13.48;86.80;99745.41;5030135;28;19917;-69
2023/10/18 09:26:35;;;;;;;;;;;;;;;13.79;86.81;99751.66;5022597;28;19932;-71
2023/10/18 09:29:02;;;;;;;;;;;;;;;13.79;85.79;99740.44;5019979;28;19922;-73
2023/10/18 09:31:28;;;;;;;;;;;;;;;13.72;85.41;99743.81;5010646;28;20035;-77
2023/10/18 09:33:56;;;;;;;;;;;;;;;13.93;84.70;99739.25;5014626;28;19926;-74
2023/10/18 09:36:25;;;;;;;;;;;;;;;14.00;85.47;99745.94;5018736;28;19921;-75
2023/10/18 09:38:54;;;;;;;;;;;;;;;14.18;82.53;99734.44;5018853;28;19983;-78
2023/10/18 09:41:21;;;;;;;;;;;;;;;14.11;83.58;99740.63;5023529;28;19940;-74
2023/10/18 09:43:49;;;;;;;;;;;;;;;13.94;84.16;99736.09;5020731;28;20376;-72
2023/10/18 09:46:15;;;;;;;;;;;;;;;14.06;83.49;99731.63;5019523;28;20146;-74
2023/10/18 09:48:45;;;;;;;;;;;;;;;14.03;83.21;99742.41;5021430;28;19921;-71
2023/10/18 09:51:14;;;;;;;;;;;;;;;14.29;81.92;99737.59;5029573;28;19917;-71
2023/10/18 09:53:49;;;;;;;;;;;;;;;14.37;82.06;99730.19;5016749;28;20610;-72
2023/10/18 09:56:15;;;;;;;;;;;;;;;14.28;81.93;99733.94;5028459;28;20015;-70
2023/10/18 09:58:46;;;;;;;;;;;;;;;14.48;80.58;99733.31;5025896;28;20338;-71
2023/10/18 10:01:30;;;;;;;;;;;;;;;14.66;79.59;99733.84;5026445;28;19921;-70
2023/10/18 10:03:58;;;;;;;;;;;;;;;14.65;78.50;99721.78;5032588;28;19921;-70
2023/10/18 10:06:24;;;;;;;;;;;;;;;14.44;79.01;99724.78;5030889;28;19917;-71
2023/10/18 10:09:12;;;;;;;;;;;;;;;14.39;79.54;99725.84;5025450;28;19948;-73
2023/10/18 10:11:43;;;;;;;;;;;;;;;14.56;79.68;99724.75;5029002;28;19920;-73
2023/10/18 10:14:09;;;;;;;;;;;;;;;14.78;80.44;99722.63;5029209;28;19925;-71
2023/10/18 10:16:36;;;;;;;;;;;;;;;14.82;80.29;99723.53;5018038;28;19921;-70
2023/10/18 10:19:04;;;;;;;;;;;;;;;14.79;79.61;99723.41;5029545;28;19932;-71
2023/10/18 10:21:33;;;;;;;;;;;;;;;14.55;79.57;99717.50;5031663;28;19913;-72
2023/10/18 10:23:58;;;;;;;;;;;;;;;14.81;78.76;99715.44;5033211;28;19913;-72
2023/10/18 10:26:27;;;;;;;;;;;;;;;14.95;79.48;99715.84;5032032;28;20534;-71
2023/10/18 10:31:53;;;;;;;;;;;;;;;15.21;75.90;99719.38;5029700;28;19925;-71
2023/10/18 10:34:26;;;;;;;;;;;;;;;15.29;75.28;99715.56;5020626;28;19922;-72
2023/10/18 10:36:52;;;;;;;;;;;;;;;15.03;78.29;99711.25;5034134;28;19913;-71
2023/10/18 10:39:23;;;;;;;;;;;;;;;15.00;79.18;99707.16;5026262;28;19917;-72
2023/10/18 10:41:49;;;;;;;;;;;;;;;14.98;79.28;99709.50;5026377;28;20000;-72
2023/10/18 10:44:22;;;;;;;;;;;;;;;14.96;79.39;99703.41;5029756;28;20011;-71
2023/10/18 10:46:50;;;;;;;;;;;;;;;15.08;77.61;99712.97;5033462;28;20382;-71
2023/10/18 10:49:36;;;;;;;;;;;;;;;15.16;77.51;99709.16;5033792;28;20019;-72
2023/10/18 10:52:04;;;;;;;;;;;;;;;15.20;77.46;99692.38;5033701;28;20008;-71
2023/10/18 10:54:29;;;;;;;;;;;;;;;15.34;78.38;99694.75;5033198;28;19984;-71
2023/10/18 10:56:55;;;;;;;;;;;;;;;15.41;77.42;99694.94;5032382;28;19945;-72
2023/10/18 10:59:22;;;;;;;;;;;;;;;15.36;77.15;99689.56;5024917;28;20304;-72
2023/10/18 11:04:27;;;;;;;;;;;;;;;15.38;76.02;99684.41;5013991;28;20427;-71
2023/10/18 11:06:56;;;;;;;;;;;;;;;15.55;74.50;99686.84;5011633;28;19914;-72
2023/10/18 11:09:32;;;;;;;;;;;;;;;15.65;73.96;99684.66;5012955;28;20307;-72
2023/10/18 11:12:00;;;;;;;;;;;;;;;15.50;73.35;99683.47;5018258;28;20003;-71
2023/10/18 11:14:27;;;;;;;;;;;;;;;15.62;74.18;99676.94;5016012;28;19921;-72
2023/10/18 11:17:09;;;;;;;;;;;;;;;15.61;73.12;99673.28;5013859;28;19914;-71
2023/10/18 11:19:40;;;;;;;;;;;;;;;15.45;75.21;99670.50;5029116;28;19917;-71
2023/10/18 11:22:06;;;;;;;;;;;;;;;15.69;74.56;99665.84;5012333;28;19936;-72
2023/10/18 11:24:31;;;;;;;;;;;;;;;15.83;74.13;99659.72;5012548;28;19917;-72
2023/10/18 11:26:57;;;;;;;;;;;;;;;15.93;72.35;99664.03;5013798;28;19924;-72
2023/10/18 11:29:25;;;;;;;;;;;;;;;15.95;72.58;99670.13;5021717;28;20004;-71
2023/10/18 11:31:58;;;;;;;;;;;;;;;15.99;72.16;99665.38;5029809;28;19924;-72
2023/10/18 11:34:27;;;;;;;;;;;;;;;15.86;70.71;99659.81;5026215;28;20306;-72
2023/10/18 11:36:54;;;;;;;;;;;;;;;15.82;72.12;99661.75;5011891;28;19922;-72
2023/10/18 11:39:23;;;;;;;;;;;;;;;15.92;73.12;99657.56;5034084;28;19963;-72
2023/10/18 11:41:49;;;;;;;;;;;;;;;16.17;70.43;99653.66;5032317;28;20446;-72
2023/10/18 11:44:26;;;;;;;;;;;;;;;16.30;68.74;99652.38;5030366;28;20403;-72
2023/10/18 11:46:56;;;;;;;;;;;;;;;16.27;69.23;99653.09;5031614;28;19933;-72
2023/10/18 11:49:21;;;;;;;;;;;;;;;16.35;68.67;99646.41;5032749;28;19927;-73
2023/10/18 11:51:51;;;;;;;;;;;;;;;16.27;69.03;99642.63;5024036;28;19921;-69
2023/10/18 11:54:35;;;;;;;;;;;;;;;16.32;68.84;99635.03;5014042;28;19922;-72
2023/10/18 11:57:02;;;;;;;;;;;;;;;16.33;69.91;99633.84;5029477;28;20503;-72
2023/10/18 11:59:28;;;;;;;;;;;;;;;16.47;68.85;99628.53;5013648;28;19960;-72
2023/10/18 12:01:58;;;;;;;;;;;;;;;16.51;68.03;99635.06;5023048;28;19917;-72
2023/10/18 12:04:27;;;;;;;;;;;;;;;16.34;69.24;99629.84;5013628;28;19924;-71
2023/10/18 12:06:53;;;;;;;;;;;;;;;16.19;70.55;99621.06;5029281;28;20280;-72
2023/10/18 12:11:44;;;;;;;;;;;;;;;16.48;68.07;99612.41;5014941;28;19924;-72
2023/10/18 12:14:09;;;;;;;;;;;;;;;16.52;66.74;99619.75;5017267;28;19922;-72
2023/10/18 12:16:35;;;;;;;;;;;;;;;16.67;66.38;99625.69;5023830;28;20292;-72
2023/10/18 12:19:00;;;;;;;;;;;;;;;16.27;67.00;99630.50;5026813;28;19917;-72
2023/10/18 12:21:29;;;;;;;;;;;;;;;16.28;67.01;99626.50;5031453;28;19913;-72
2023/10/18 12:23:55;;;;;;;;;;;;;;;16.25;67.67;99624.41;5045006;28;20011;-72
2023/10/18 12:26:24;;;;;;;;;;;;;;;16.36;67.47;99614.19;5032280;28;19920;-71
2023/10/18 12:28:51;;;;;;;;;;;;;;;16.48;66.38;99623.69;5032190;28;19913;-72
2023/10/18 12:31:26;;;;;;;;;;;;;;;16.32;67.85;99624.59;5016164;28;19913;-72
2023/10/18 12:33:51;;;;;;;;;;;;;;;15.94;68.30;99623.34;5011983;28;20396;-72
2023/10/18 12:36:23;;;;;;;;;;;;;;;16.26;67.74;99612.78;5010933;28;19971;-72
2023/10/18 12:38:49;;;;;;;;;;;;;;;16.25;67.31;99621.59;5013731;28;20376;-72
2023/10/18 12:41:27;;;;;;;;;;;;;;;16.21;67.61;99620.72;5012433;28;19925;-72
2023/10/18 12:43:53;;;;;;;;;;;;;;;16.53;67.99;99621.38;5012259;28;20363;-72
2023/10/18 12:46:21;;;;;;;;;;;;;;;16.69;66.98;99623.31;5011843;28;20011;-72
2023/10/18 12:48:49;;;;;;;;;;;;;;;16.50;66.98;99619.31;5022266;28;19936;-72
2023/10/18 12:51:17;;;;;;;;;;;;;;;16.54;67.31;99625.03;5030043;28;20423;-72
2023/10/18 12:53:55;;;;;;;;;;;;;;;16.58;65.96;99623.09;5027732;28;20376;-72
2023/10/18 13:01:42;;;;;;;;;;;;;;;15.75;68.62;99627.72;5012420;28;19937;-72
2023/10/18 13:04:07;;;;;;;;;;;;;;;16.08;67.98;99622.84;5010615;28;19913;-72
2023/10/18 13:06:41;;;;;;;;;;;;;;;16.08;68.46;99618.03;5022618;28;19924;-72
2023/10/18 13:09:15;;;;;;;;;;;;;;;16.31;66.98;99613.66;5031427;28;19924;-73
2023/10/18 13:14:17;;;;;;;;;;;;;;;16.36;64.60;99604.91;5026101;28;20019;-72
2023/10/18 13:16:42;;;;;;;;;;;;;;;16.59;64.91;99607.78;5027001;28;19923;-69
2023/10/18 13:19:09;;;;;;;;;;;;;;;16.58;64.91;99614.63;5013385;28;19917;-71
2023/10/18 13:21:34;;;;;;;;;;;;;;;16.53;64.74;99621.38;5024084;28;19917;-70
2023/10/18 13:24:00;;;;;;;;;;;;;;;16.56;64.43;99619.84;5019633;28;19917;-72
2023/10/18 13:26:31;;;;;;;;;;;;;;;16.75;64.27;99621.00;5025775;28;19917;-70
2023/10/18 13:29:03;;;;;;;;;;;;;;;16.77;64.24;99613.78;5024213;28;20416;-74
2023/10/18 13:31:32;;;;;;;;;;;;;;;16.92;63.53;99608.41;5024107;28;19917;-73
2023/10/18 13:34:43;;;;;;;;;;;;;;;16.93;62.50;99613.69;5017074;28;19922;-72